createdAt,value
2023-06-07T00:00:22.738Z,102250.28
2023-06-07T00:02:49.250Z,102249.66
2023-06-07T00:05:16.158Z,102242.88
2023-06-07T00:07:43.565Z,102245.50
2023-06-07T00:10:10.439Z,102242.06
2023-06-07T00:12:37.576Z,102259.59
2023-06-07T00:15:05.421Z,102256.63
2023-06-07T00:17:32.038Z,102257.06
2023-06-07T00:19:58.593Z,102260.53
2023-06-07T00:22:25.264Z,102260.47
2023-06-07T00:24:55.210Z,102257.22
2023-06-07T00:27:21.673Z,102259.91
2023-06-07T00:29:48.128Z,102255.72
2023-06-07T00:32:14.646Z,102256.59
2023-06-07T00:34:41.194Z,102259.38
2023-06-07T00:37:07.828Z,102249.91
2023-06-07T00:39:34.435Z,102254.31
2023-06-07T00:42:01.087Z,102254.47
2023-06-07T00:44:27.580Z,102254.59
2023-06-07T00:46:54.540Z,102259.22
2023-06-07T00:49:21.491Z,102255.75
2023-06-07T00:51:48.323Z,102255.53
2023-06-07T00:54:18.744Z,102256.47
2023-06-07T00:56:50.782Z,102255.06
2023-06-07T00:59:22.007Z,102268.44
2023-06-07T01:01:53.139Z,102256.56
2023-06-07T01:04:25.292Z,102260.88
2023-06-07T01:06:55.315Z,102258.53
2023-06-07T01:09:22.974Z,102258.09
2023-06-07T01:11:51.798Z,102266.03
2023-06-07T01:14:20.651Z,102267.66
2023-06-07T01:16:51.673Z,102261.91
2023-06-07T01:19:24.256Z,102266.44
2023-06-07T01:21:57.433Z,102252.50
2023-06-07T01:24:24.031Z,102259.66
2023-06-07T01:26:58.145Z,102262.44
2023-06-07T01:29:27.853Z,102262.41
2023-06-07T01:31:58.038Z,102262.63
2023-06-07T01:34:25.488Z,102252.31
2023-06-07T01:36:54.947Z,102252.28
2023-06-07T01:39:22.783Z,102263.72
2023-06-07T01:41:51.011Z,102261.38
2023-06-07T01:44:18.588Z,102256.22
2023-06-07T01:46:45.888Z,102261.63
2023-06-07T01:49:13.731Z,102254.75
2023-06-07T01:51:40.237Z,102258.44
2023-06-07T01:54:07.328Z,102250.81
2023-06-07T01:56:58.239Z,102258.78
2023-06-07T01:59:56.723Z,102248.66
2023-06-07T02:02:39.689Z,102253.06
2023-06-07T02:05:23.482Z,102251.72
2023-06-07T02:07:51.760Z,102246.53
2023-06-07T02:10:21.696Z,102251.75
2023-06-07T02:12:51.143Z,102243.28
2023-06-07T02:15:17.853Z,102248.28
2023-06-07T02:18:02.670Z,102247.44
2023-06-07T02:20:30.451Z,102252.69
2023-06-07T02:22:58.169Z,102247.50
2023-06-07T02:25:25.334Z,102240.69
2023-06-07T02:27:52.265Z,102246.06
2023-06-07T02:30:19.112Z,102247.91
2023-06-07T02:32:54.849Z,102245.47
2023-06-07T02:35:23.309Z,102241.06
2023-06-07T02:37:49.899Z,102235.97
2023-06-07T02:40:16.677Z,102242.94
2023-06-07T02:42:47.210Z,102242.97
2023-06-07T02:45:14.416Z,102234.50
2023-06-07T02:47:41.323Z,102242.50
2023-06-07T02:50:08.659Z,102241.78
2023-06-07T02:52:36.014Z,102239.97
2023-06-07T02:55:02.535Z,102242.63
2023-06-07T02:57:28.989Z,102248.78
2023-06-07T02:59:55.511Z,102251.41
2023-06-07T03:02:22.111Z,102258.63
2023-06-07T03:04:50.208Z,102249.22
2023-06-07T03:07:16.773Z,102252.75
2023-06-07T03:09:44.545Z,102247.59
2023-06-07T03:12:11.762Z,102248.63
2023-06-07T03:14:39.323Z,102252.22
2023-06-07T03:17:06.349Z,102254.06
2023-06-07T03:19:33.090Z,102248.88
2023-06-07T03:21:59.567Z,102250.63
2023-06-07T03:24:26.032Z,102254.28
2023-06-07T03:26:53.517Z,102253.50
2023-06-07T03:29:20.022Z,102250.84
2023-06-07T03:31:46.699Z,102250.75
2023-06-07T03:34:13.263Z,102249.09
2023-06-07T03:36:41.308Z,102244.72
2023-06-07T03:39:07.871Z,102254.28
2023-06-07T03:41:34.375Z,102259.41
2023-06-07T03:44:01.046Z,102245.53
2023-06-07T03:46:27.692Z,102251.59
2023-06-07T03:48:54.259Z,102258.59
2023-06-07T03:51:21.512Z,102250.75
2023-06-07T03:53:48.229Z,102263.81
2023-06-07T03:56:15.520Z,102256.91
2023-06-07T03:58:42.163Z,102263.94
2023-06-07T04:01:08.674Z,102263.19
2023-06-07T04:03:35.612Z,102263.09
2023-06-07T04:06:02.386Z,102267.53
2023-06-07T04:08:28.910Z,102263.94
2023-06-07T04:10:55.513Z,102260.41
2023-06-07T04:13:22.062Z,102268.22
2023-06-07T04:15:48.608Z,102263.03
2023-06-07T04:18:15.099Z,102267.34
2023-06-07T04:20:42.627Z,102267.47
2023-06-07T04:23:09.208Z,102255.56
2023-06-07T04:25:35.699Z,102257.38
2023-06-07T04:28:02.912Z,102259.25
2023-06-07T04:30:35.511Z,102254.84
2023-06-07T04:33:04.628Z,102259.81
2023-06-07T04:35:34.861Z,102258.06
2023-06-07T04:38:03.008Z,102254.53
2023-06-07T04:40:30.636Z,102252.84
2023-06-07T04:43:06.940Z,102253.56
2023-06-07T04:45:34.186Z,102252.56
2023-06-07T04:48:01.940Z,102258.84
2023-06-07T04:50:32.160Z,102256.94
2023-06-07T04:53:01.978Z,102261.16
2023-06-07T04:55:30.630Z,102266.13
2023-06-07T04:57:58.213Z,102260.16
2023-06-07T05:00:26.663Z,102257.56
2023-06-07T05:02:54.369Z,102259.53
2023-06-07T05:05:21.163Z,102257.16
2023-06-07T05:07:48.192Z,102268.41
2023-06-07T05:10:14.861Z,102264.75
2023-06-07T05:12:41.397Z,102269.75
2023-06-07T05:15:08.412Z,102264.50
2023-06-07T05:17:35.294Z,102267.13
2023-06-07T05:20:01.819Z,102270.50
2023-06-07T05:22:28.450Z,102269.47
2023-06-07T05:24:54.911Z,102272.06
2023-06-07T05:27:21.426Z,102271.47
2023-06-07T05:29:47.909Z,102283.53
2023-06-07T05:32:14.395Z,102277.38
2023-06-07T05:34:40.856Z,102282.53
2023-06-07T05:37:08.071Z,102277.31
2023-06-07T05:39:34.571Z,102272.69
2023-06-07T05:42:01.101Z,102274.34
2023-06-07T05:44:27.941Z,102271.59
2023-06-07T05:46:54.464Z,102276.69
2023-06-07T05:49:20.984Z,102270.63
2023-06-07T05:51:47.488Z,102275.41
2023-06-07T05:54:14.029Z,102280.41
2023-06-07T05:56:40.638Z,102274.66
2023-06-07T05:59:07.640Z,102272.47
2023-06-07T06:01:35.948Z,102263.94
2023-06-07T06:04:02.628Z,102257.84
2023-06-07T06:06:29.164Z,102265.22
2023-06-07T06:08:55.770Z,102260.78
2023-06-07T06:11:22.254Z,102263.84
2023-06-07T06:13:49.792Z,102257.72
2023-06-07T06:16:16.360Z,102274.63
2023-06-07T06:18:43.337Z,102265.84
2023-06-07T06:21:09.931Z,102265.94
2023-06-07T06:23:37.059Z,102275.44
2023-06-07T06:26:03.947Z,102271.50
2023-06-07T06:28:30.605Z,102272.50
2023-06-07T06:30:57.180Z,102274.75
2023-06-07T06:33:23.840Z,102270.41
2023-06-07T06:35:50.385Z,102274.50
2023-06-07T06:38:18.523Z,102279.84
2023-06-07T06:40:46.188Z,102281.41
2023-06-07T06:43:13.157Z,102269.69
2023-06-07T06:45:40.139Z,102277.53
2023-06-07T06:48:07.199Z,102283.06
2023-06-07T06:50:34.453Z,102275.66
2023-06-07T06:53:01.286Z,102277.97
2023-06-07T06:55:27.837Z,102274.13
2023-06-07T06:57:54.732Z,102279.22
2023-06-07T07:00:21.717Z,102284.16
2023-06-07T07:02:48.617Z,102287.16
2023-06-07T07:05:16.518Z,102295.78
2023-06-07T07:07:43.107Z,102292.63
2023-06-07T07:10:10.084Z,102284.69
2023-06-07T07:12:39.058Z,102294.25
2023-06-07T07:15:06.476Z,102295.59
2023-06-07T07:17:33.079Z,102292.25
2023-06-07T07:19:59.744Z,102300.03
2023-06-07T07:22:28.845Z,102299.06
2023-06-07T07:24:59.223Z,102299.31
2023-06-07T07:27:26.041Z,102306.63
2023-06-07T07:29:53.012Z,102303.78
2023-06-07T07:32:19.641Z,102306.88
2023-06-07T07:34:49.174Z,102311.41
2023-06-07T07:37:15.900Z,102304.94
2023-06-07T07:39:42.506Z,102306.06
2023-06-07T07:42:09.223Z,102294.53
2023-06-07T07:44:35.808Z,102283.50
2023-06-07T07:47:02.322Z,102296.00
2023-06-07T07:49:28.806Z,102291.00
2023-06-07T07:51:58.180Z,102295.59
2023-06-07T07:54:24.675Z,102288.56
2023-06-07T07:56:51.144Z,102287.34
2023-06-07T07:59:17.728Z,102286.78
2023-06-07T08:01:46.573Z,102299.75
2023-06-07T08:04:13.244Z,102294.41
2023-06-07T08:06:39.779Z,102294.16
2023-06-07T08:09:07.040Z,102290.19
2023-06-07T08:11:33.535Z,102292.31
2023-06-07T08:14:00.050Z,102287.75
2023-06-07T08:16:27.236Z,102286.13
2023-06-07T08:19:00.260Z,102283.84
2023-06-07T08:21:26.817Z,102286.22
2023-06-07T08:23:56.301Z,102285.78
2023-06-07T08:26:23.825Z,102293.75
2023-06-07T08:28:50.451Z,102280.34
2023-06-07T08:31:19.013Z,102286.22
2023-06-07T08:33:45.820Z,102282.28
2023-06-07T08:36:12.725Z,102275.19
2023-06-07T08:38:40.388Z,102278.03
2023-06-07T08:41:07.021Z,102279.75
2023-06-07T08:43:33.516Z,102275.91
2023-06-07T08:46:05.327Z,102278.72
2023-06-07T08:48:34.263Z,102280.88
2023-06-07T08:51:05.562Z,102282.44
2023-06-07T08:53:49.826Z,102281.06
2023-06-07T08:56:19.071Z,102290.44
2023-06-07T08:58:47.072Z,102283.31
2023-06-07T09:01:13.715Z,102282.59
2023-06-07T09:03:41.351Z,102289.06
2023-06-07T09:06:08.312Z,102287.88
2023-06-07T09:08:34.891Z,102288.81
2023-06-07T09:11:01.784Z,102289.38
2023-06-07T09:13:28.887Z,102284.28
2023-06-07T09:15:57.547Z,102285.25
2023-06-07T09:18:24.093Z,102283.72
2023-06-07T09:20:50.907Z,102283.84
2023-06-07T09:23:17.947Z,102286.47
2023-06-07T09:25:48.486Z,102282.03
2023-06-07T09:28:16.156Z,102288.22
2023-06-07T09:31:01.396Z,102282.13
2023-06-07T09:33:31.937Z,102275.13
2023-06-07T09:36:16.880Z,102277.09
2023-06-07T09:38:43.527Z,102274.25
2023-06-07T09:41:14.148Z,102268.41
2023-06-07T09:43:48.259Z,102266.28
2023-06-07T09:46:16.015Z,102271.69
2023-06-07T09:48:49.708Z,102268.53
2023-06-07T09:51:16.859Z,102271.53
2023-06-07T09:53:56.656Z,102269.75
2023-06-07T09:56:24.173Z,102272.91
2023-06-07T09:59:15.306Z,102271.97
2023-06-07T10:01:48.239Z,102264.34
2023-06-07T10:04:15.725Z,102266.44
2023-06-07T10:06:44.012Z,102261.19
2023-06-07T10:09:11.790Z,102257.06
2023-06-07T10:11:42.601Z,102260.97
2023-06-07T10:14:11.864Z,102262.13
2023-06-07T10:16:46.080Z,102257.06
2023-06-07T10:19:24.400Z,102255.09
2023-06-07T10:21:54.400Z,102252.88
2023-06-07T10:24:47.531Z,102244.00
2023-06-07T10:27:20.844Z,102244.81
2023-06-07T10:30:01.274Z,102253.78
2023-06-07T10:32:31.179Z,102231.06
2023-06-07T10:34:58.959Z,102233.81
2023-06-07T10:37:26.829Z,102235.78
2023-06-07T10:39:53.739Z,102232.47
2023-06-07T10:42:20.480Z,102235.34
2023-06-07T10:44:47.326Z,102233.47
2023-06-07T10:47:22.944Z,102234.75
2023-06-07T10:49:50.674Z,102222.94
2023-06-07T10:52:17.694Z,102218.16
2023-06-07T10:54:45.361Z,102227.72
2023-06-07T10:57:12.104Z,102220.50
2023-06-07T10:59:40.548Z,102208.41
2023-06-07T11:02:28.707Z,102221.09
2023-06-07T11:04:58.117Z,102213.22
2023-06-07T11:07:32.164Z,102220.47
2023-06-07T11:10:04.006Z,102221.41
2023-06-07T11:12:37.754Z,102217.91
2023-06-07T11:15:36.446Z,102219.28
2023-06-07T11:18:13.553Z,102209.13
2023-06-07T11:20:44.562Z,102221.44
2023-06-07T11:23:31.108Z,102221.31
2023-06-07T11:26:16.080Z,102210.16
2023-06-07T11:28:43.111Z,102202.69
2023-06-07T11:31:14.243Z,102200.66
2023-06-07T11:33:42.542Z,102195.00
2023-06-07T11:36:12.592Z,102193.66
2023-06-07T11:38:40.551Z,102190.63
2023-06-07T11:41:07.465Z,102189.22
2023-06-07T11:43:34.319Z,102183.16
2023-06-07T11:46:01.195Z,102186.66
2023-06-07T11:48:31.692Z,102184.97
2023-06-07T11:51:00.695Z,102196.91
2023-06-07T11:53:31.740Z,102188.34
2023-06-07T11:56:00.015Z,102190.75
2023-06-07T11:58:27.277Z,102179.84
2023-06-07T12:00:54.037Z,102171.00
2023-06-07T12:03:22.783Z,102171.47
2023-06-07T12:05:50.068Z,102167.59
2023-06-07T12:08:18.361Z,102177.00
2023-06-07T12:10:53.681Z,102172.84
2023-06-07T12:13:22.155Z,102169.66
2023-06-07T12:15:56.391Z,102170.72
2023-06-07T12:18:28.100Z,102162.66
2023-06-07T12:21:05.896Z,102160.47
2023-06-07T12:23:38.259Z,102152.56
2023-06-07T12:26:18.946Z,102164.47
2023-06-07T12:28:45.679Z,102162.31
2023-06-07T12:31:30.234Z,102159.34
2023-06-07T12:34:00.805Z,102155.84
2023-06-07T12:36:33.048Z,102153.66
2023-06-07T12:39:06.689Z,102162.09
2023-06-07T12:41:34.459Z,102154.47
2023-06-07T12:44:03.386Z,102154.34
2023-06-07T12:46:31.467Z,102157.50
2023-06-07T12:48:58.139Z,102152.50
2023-06-07T12:51:25.812Z,102141.78
2023-06-07T12:53:54.067Z,102143.50
2023-06-07T12:56:21.705Z,102134.69
2023-06-07T12:58:48.889Z,102141.69
2023-06-07T13:01:16.405Z,102130.78
2023-06-07T13:03:43.377Z,102134.84
2023-06-07T13:06:10.185Z,102128.03
2023-06-07T13:08:36.730Z,102128.06
2023-06-07T13:11:05.624Z,102136.31
2023-06-07T13:13:32.241Z,102133.81
2023-06-07T13:16:00.311Z,102128.88
2023-06-07T13:18:27.152Z,102121.88
2023-06-07T13:20:53.771Z,102121.13
2023-06-07T13:23:20.276Z,102124.09
2023-06-07T13:25:46.888Z,102114.97
2023-06-07T13:28:13.964Z,102125.88
2023-06-07T13:30:40.523Z,102107.47
2023-06-07T13:33:19.442Z,102115.44
2023-06-07T13:35:46.164Z,102108.56
2023-06-07T13:38:12.755Z,102103.78
2023-06-07T13:40:39.363Z,102097.88
2023-06-07T13:43:05.951Z,102097.34
2023-06-07T13:45:32.463Z,102098.88
2023-06-07T13:47:59.667Z,102101.72
2023-06-07T13:50:26.491Z,102100.28
2023-06-07T13:52:54.093Z,102099.31
2023-06-07T13:55:22.280Z,102100.03
2023-06-07T13:57:49.341Z,102098.22
2023-06-07T14:00:16.261Z,102091.50
2023-06-07T14:02:43.252Z,102085.03
2023-06-07T14:05:10.340Z,102077.06
2023-06-07T14:07:37.147Z,102081.69
2023-06-07T14:10:04.293Z,102091.06
2023-06-07T14:12:30.943Z,102080.13
2023-06-07T14:14:57.420Z,102075.22
2023-06-07T14:17:23.926Z,102083.38
2023-06-07T14:19:50.639Z,102079.28
2023-06-07T14:22:18.919Z,102066.28
2023-06-07T14:24:46.042Z,102063.72
2023-06-07T14:27:12.915Z,102063.88
2023-06-07T14:29:39.545Z,102070.72
2023-06-07T14:32:06.626Z,102064.81
2023-06-07T14:34:33.297Z,102063.72
2023-06-07T14:37:01.893Z,102062.31
2023-06-07T14:39:28.549Z,102063.41
2023-06-07T14:41:55.083Z,102061.47
2023-06-07T14:44:21.611Z,102069.75
2023-06-07T14:46:48.158Z,102053.50
2023-06-07T14:49:14.720Z,102067.34
2023-06-07T14:51:41.471Z,102056.78
2023-06-07T14:54:08.105Z,102054.72
2023-06-07T14:56:34.777Z,102062.53
2023-06-07T14:59:01.615Z,102055.41
2023-06-07T15:01:28.319Z,102068.28
2023-06-07T15:03:54.950Z,102049.09
2023-06-07T15:06:21.478Z,102049.63
2023-06-07T15:08:48.069Z,102056.97
2023-06-07T15:11:16.308Z,102053.75
2023-06-07T15:13:42.803Z,102050.53
2023-06-07T15:16:09.296Z,102048.81
2023-06-07T15:18:35.788Z,102043.22
2023-06-07T15:21:02.345Z,102052.63
2023-06-07T15:23:29.094Z,102051.19
2023-06-07T15:26:00.149Z,102063.81
2023-06-07T15:28:27.652Z,102042.22
2023-06-07T15:30:54.257Z,102053.59
2023-06-07T15:33:20.828Z,102052.34
2023-06-07T15:35:47.402Z,102049.53
2023-06-07T15:38:14.445Z,102042.72
2023-06-07T15:40:44.800Z,102042.06
2023-06-07T15:43:11.341Z,102041.81
2023-06-07T15:45:37.898Z,102039.56
2023-06-07T15:48:04.754Z,102036.78
2023-06-07T15:50:32.533Z,102035.31
2023-06-07T15:52:59.290Z,102026.91
2023-06-07T15:55:28.574Z,102029.38
2023-06-07T15:57:55.879Z,102020.97
2023-06-07T16:00:36.848Z,102016.94
2023-06-07T16:03:05.911Z,102025.97
2023-06-07T16:05:32.812Z,102017.78
2023-06-07T16:08:04.565Z,102021.38
2023-06-07T16:10:31.783Z,102024.13
2023-06-07T16:12:58.605Z,102018.56
2023-06-07T16:15:25.161Z,102026.72
2023-06-07T16:17:51.813Z,102026.19
2023-06-07T16:20:18.340Z,102024.09
2023-06-07T16:22:44.905Z,102020.47
2023-06-07T16:25:11.567Z,102017.66
2023-06-07T16:27:38.043Z,102019.78
2023-06-07T16:30:05.085Z,102013.88
2023-06-07T16:32:31.860Z,102011.94
2023-06-07T16:34:58.384Z,102006.00
2023-06-07T16:37:25.122Z,102004.88
2023-06-07T16:39:51.759Z,102004.59
2023-06-07T16:42:18.315Z,102006.78
2023-06-07T16:44:44.834Z,101997.47
2023-06-07T16:47:12.622Z,101999.88
2023-06-07T16:49:39.176Z,102005.81
2023-06-07T16:52:05.831Z,102002.16
2023-06-07T16:54:32.290Z,101999.50
2023-06-07T16:56:58.766Z,102007.59
2023-06-07T16:59:26.041Z,102003.47
2023-06-07T17:01:52.944Z,101992.44
2023-06-07T17:04:19.500Z,101994.88
2023-06-07T17:06:46.288Z,101990.28
2023-06-07T17:09:12.850Z,101993.78
2023-06-07T17:11:39.378Z,101987.66
2023-06-07T17:14:06.269Z,101990.78
2023-06-07T17:16:32.846Z,101991.22
2023-06-07T17:18:59.430Z,101985.13
2023-06-07T17:21:25.957Z,101985.84
2023-06-07T17:23:52.520Z,101978.34
2023-06-07T17:26:19.034Z,101990.56
2023-06-07T17:28:45.531Z,101981.06
2023-06-07T17:31:12.055Z,101981.94
2023-06-07T17:33:41.695Z,101984.97
2023-06-07T17:36:08.794Z,101979.94
2023-06-07T17:38:35.433Z,101984.69
2023-06-07T17:41:01.958Z,101975.25
2023-06-07T17:43:28.446Z,101981.13
2023-06-07T17:45:55.066Z,101992.72
2023-06-07T17:48:21.729Z,101986.91
2023-06-07T17:50:48.191Z,102006.25
2023-06-07T17:53:15.394Z,101997.88
2023-06-07T17:55:44.654Z,101992.31
2023-06-07T17:58:11.450Z,102001.91
2023-06-07T18:00:38.120Z,102005.16
2023-06-07T18:03:05.883Z,101997.06
2023-06-07T18:05:32.405Z,102001.84
2023-06-07T18:07:58.922Z,102003.81
2023-06-07T18:10:25.547Z,102002.38
2023-06-07T18:12:52.016Z,101999.47
2023-06-07T18:15:18.514Z,102002.84
2023-06-07T18:17:45.289Z,101995.69
2023-06-07T18:20:12.393Z,102004.09
2023-06-07T18:22:38.964Z,102000.28
2023-06-07T18:25:06.034Z,102002.94
2023-06-07T18:27:32.521Z,102006.44
2023-06-07T18:29:58.981Z,102001.44
2023-06-07T18:32:26.606Z,102002.69
2023-06-07T18:34:53.248Z,102008.81
2023-06-07T18:37:19.746Z,102001.66
2023-06-07T18:39:46.219Z,102005.63
2023-06-07T18:42:14.365Z,102010.81
2023-06-07T18:44:43.014Z,101998.75
2023-06-07T18:47:09.565Z,102002.19
2023-06-07T18:49:36.569Z,102004.53
2023-06-07T18:52:08.006Z,102014.44
2023-06-07T18:54:34.507Z,102016.19
2023-06-07T18:57:01.092Z,102013.81
2023-06-07T18:59:27.600Z,102011.94
2023-06-07T19:01:55.547Z,102014.50
2023-06-07T19:04:23.018Z,102013.00
2023-06-07T19:06:51.891Z,102012.53
2023-06-07T19:09:19.009Z,102021.66
2023-06-07T19:11:46.144Z,102013.28
2023-06-07T19:14:12.672Z,102021.97
2023-06-07T19:16:39.423Z,102012.84
2023-06-07T19:19:05.967Z,102014.09
2023-06-07T19:21:32.876Z,102019.75
2023-06-07T19:24:02.337Z,102012.69
2023-06-07T19:26:30.739Z,102013.28
2023-06-07T19:29:00.073Z,102016.44
2023-06-07T19:31:27.049Z,102022.09
2023-06-07T19:33:54.810Z,102021.16
2023-06-07T19:36:21.937Z,102031.53
2023-06-07T19:38:48.506Z,102029.84
2023-06-07T19:41:15.311Z,102034.66
2023-06-07T19:43:42.056Z,102032.03
2023-06-07T19:46:08.862Z,102040.47
2023-06-07T19:48:35.476Z,102044.41
2023-06-07T19:51:02.224Z,102039.13
2023-06-07T19:53:28.677Z,102039.59
2023-06-07T19:55:56.040Z,102049.69
2023-06-07T19:58:22.678Z,102048.59
2023-06-07T20:00:49.645Z,102043.88
2023-06-07T20:03:16.239Z,102049.03
2023-06-07T20:05:43.079Z,102038.44
2023-06-07T20:08:11.548Z,102039.13
2023-06-07T20:10:38.160Z,102044.53
2023-06-07T20:13:04.684Z,102048.59
2023-06-07T20:15:31.595Z,102044.72
2023-06-07T20:17:58.211Z,102052.06
2023-06-07T20:20:25.028Z,102058.63
2023-06-07T20:22:51.599Z,102057.19
2023-06-07T20:25:18.118Z,102048.75
2023-06-07T20:27:44.600Z,102055.19
2023-06-07T20:30:12.006Z,102058.38
2023-06-07T20:32:38.555Z,102056.31
2023-06-07T20:35:05.528Z,102056.66
2023-06-07T20:37:33.663Z,102062.47
2023-06-07T20:40:01.348Z,102056.78
2023-06-07T20:42:28.097Z,102062.91
2023-06-07T20:44:54.640Z,102057.13
2023-06-07T20:47:21.456Z,102062.22
2023-06-07T20:49:48.088Z,102070.38
2023-06-07T20:52:14.577Z,102065.75
2023-06-07T20:54:41.134Z,102076.75
2023-06-07T20:57:07.885Z,102076.44
2023-06-07T20:59:35.364Z,102087.22
2023-06-07T21:02:02.157Z,102085.75
2023-06-07T21:04:28.839Z,102085.88
2023-06-07T21:06:55.613Z,102082.88
2023-06-07T21:09:22.071Z,102096.19
2023-06-07T21:11:48.555Z,102089.19
2023-06-07T21:14:17.184Z,102092.03
2023-06-07T21:16:47.392Z,102096.38
2023-06-07T21:19:14.666Z,102090.69
2023-06-07T21:21:41.396Z,102086.66
2023-06-07T21:24:08.109Z,102086.13
2023-06-07T21:26:35.032Z,102084.53
2023-06-07T21:29:01.746Z,102089.19
2023-06-07T21:31:28.361Z,102094.78
2023-06-07T21:34:02.687Z,102091.28
2023-06-07T21:36:29.795Z,102091.59
2023-06-07T21:38:59.784Z,102090.13
2023-06-07T21:41:29.094Z,102089.97
2023-06-07T21:43:55.930Z,102098.09
2023-06-07T21:46:22.739Z,102107.16
2023-06-07T21:48:49.365Z,102101.16
2023-06-07T21:51:16.012Z,102102.50
2023-06-07T21:53:42.618Z,102100.97
2023-06-07T21:56:09.172Z,102091.88
2023-06-07T21:58:35.782Z,102089.72
2023-06-07T22:01:02.337Z,102093.31
2023-06-07T22:03:28.965Z,102096.25
2023-06-07T22:05:55.441Z,102099.16
2023-06-07T22:08:21.925Z,102090.06
2023-06-07T22:10:48.453Z,102098.34
2023-06-07T22:13:17.771Z,102091.97
2023-06-07T22:15:45.544Z,102099.97
2023-06-07T22:18:12.637Z,102093.41
2023-06-07T22:20:41.339Z,102084.19
2023-06-07T22:23:08.814Z,102086.09
2023-06-07T22:25:40.878Z,102087.00
2023-06-07T22:28:13.625Z,102091.56
2023-06-07T22:30:41.339Z,102090.50
2023-06-07T22:33:11.729Z,102092.47
2023-06-07T22:35:40.765Z,102098.22
2023-06-07T22:38:12.794Z,102092.41
2023-06-07T22:40:40.685Z,102094.66
2023-06-07T22:43:07.190Z,102084.03
2023-06-07T22:45:33.659Z,102084.38
2023-06-07T22:48:10.478Z,102089.25
2023-06-07T22:50:38.849Z,102086.91
2023-06-07T22:53:06.694Z,102084.16
2023-06-07T22:55:34.292Z,102092.06
2023-06-07T22:58:02.173Z,102090.38
2023-06-07T23:00:29.364Z,102093.09
2023-06-07T23:02:58.408Z,102088.00
2023-06-07T23:05:28.250Z,102087.16
2023-06-07T23:07:56.564Z,102103.22
2023-06-07T23:10:34.528Z,102095.53
2023-06-07T23:13:07.988Z,102096.47
2023-06-07T23:15:36.530Z,102094.09
2023-06-07T23:18:03.502Z,102094.88
2023-06-07T23:20:34.076Z,102092.50
2023-06-07T23:23:04.571Z,102094.19
2023-06-07T23:25:31.782Z,102092.50
2023-06-07T23:27:59.396Z,102095.88
2023-06-07T23:30:26.582Z,102094.38
2023-06-07T23:32:53.334Z,102083.47
2023-06-07T23:35:20.995Z,102090.94
2023-06-07T23:37:47.971Z,102083.03
2023-06-07T23:40:16.703Z,102088.91
2023-06-07T23:42:43.990Z,102084.00
2023-06-07T23:45:10.720Z,102084.06
2023-06-07T23:47:37.917Z,102082.66
2023-06-07T23:50:08.603Z,102083.69
2023-06-07T23:52:36.654Z,102083.75
2023-06-07T23:55:03.808Z,102072.66
2023-06-07T23:57:30.332Z,102079.41
2023-06-07T23:59:57.254Z,102081.53
